createdAt,value
2023-01-27T00:00:20.514Z,3.09
2023-01-27T00:03:15.764Z,3.12
2023-01-27T00:05:49.718Z,3.10
2023-01-27T00:08:24.174Z,3.07
2023-01-27T00:11:15.732Z,3.06
2023-01-27T00:13:49.275Z,3.03
2023-01-27T00:16:23.136Z,2.99
2023-01-27T00:18:57.083Z,2.97
2023-01-27T00:21:48.810Z,2.97
2023-01-27T00:24:39.237Z,2.97
2023-01-27T00:27:14.386Z,2.97
2023-01-27T00:29:48.278Z,2.95
2023-01-27T00:32:39.333Z,2.93
2023-01-27T00:35:16.785Z,2.95
2023-01-27T00:37:51.090Z,2.98
2023-01-27T00:40:26.272Z,3.01
2023-01-27T00:43:00.140Z,3.03
2023-01-27T00:45:53.039Z,3.03
2023-01-27T00:48:26.979Z,2.97
2023-01-27T00:51:01.263Z,2.95
2023-01-27T00:53:35.331Z,2.96
2023-01-27T00:56:10.076Z,2.95
2023-01-27T00:58:44.476Z,2.90
2023-01-27T01:01:20.951Z,2.85
2023-01-27T01:03:54.936Z,2.84
2023-01-27T01:06:28.543Z,2.85
2023-01-27T01:09:02.285Z,2.87
2023-01-27T01:11:36.191Z,2.90
2023-01-27T01:14:09.909Z,2.90
2023-01-27T01:16:43.665Z,2.89
2023-01-27T01:19:17.670Z,2.87
2023-01-27T01:21:51.319Z,2.83
2023-01-27T01:24:25.205Z,2.81
2023-01-27T01:26:58.622Z,2.83
2023-01-27T01:29:32.561Z,2.83
2023-01-27T01:32:10.210Z,2.80
2023-01-27T01:34:44.946Z,2.80
2023-01-27T01:37:18.994Z,2.81
2023-01-27T01:39:52.781Z,2.82
2023-01-27T01:42:26.328Z,2.84
2023-01-27T01:45:30.746Z,2.85
2023-01-27T01:48:09.054Z,2.85
2023-01-27T01:50:46.441Z,2.85
2023-01-27T01:53:20.692Z,2.87
2023-01-27T01:55:54.172Z,2.89
2023-01-27T01:58:29.629Z,2.87
2023-01-27T02:01:07.577Z,2.84
2023-01-27T02:03:45.311Z,2.80
2023-01-27T02:06:19.380Z,2.82
2023-01-27T02:08:55.994Z,2.85
2023-01-27T02:11:30.193Z,2.88
2023-01-27T02:14:05.708Z,2.92
2023-01-27T02:16:41.804Z,2.93
2023-01-27T02:19:25.500Z,2.93
2023-01-27T02:22:02.193Z,2.92
2023-01-27T02:24:46.885Z,2.92
2023-01-27T02:27:20.628Z,2.92
2023-01-27T02:29:54.226Z,2.92
2023-01-27T02:32:28.971Z,2.93
2023-01-27T02:35:03.836Z,2.92
2023-01-27T02:37:37.862Z,2.91
2023-01-27T02:40:15.667Z,2.92
2023-01-27T02:42:49.837Z,2.95
2023-01-27T02:45:23.257Z,2.97
2023-01-27T02:47:56.856Z,2.98
2023-01-27T02:50:30.978Z,3.03
2023-01-27T02:53:04.828Z,3.06
2023-01-27T02:55:38.566Z,3.06
2023-01-27T02:58:12.266Z,3.08
2023-01-27T03:00:54.302Z,3.08
2023-01-27T03:03:28.249Z,3.07
2023-01-27T03:06:05.363Z,3.07
2023-01-27T03:08:39.867Z,3.09
2023-01-27T03:11:14.011Z,3.09
2023-01-27T03:13:47.851Z,3.08
2023-01-27T03:16:39.890Z,3.07
2023-01-27T03:19:14.224Z,3.05
2023-01-27T03:21:51.443Z,3.02
2023-01-27T03:24:25.896Z,3.03
2023-01-27T03:26:59.876Z,3.06
2023-01-27T03:29:58.398Z,3.08
2023-01-27T03:32:34.129Z,3.09
2023-01-27T03:35:39.662Z,3.10
2023-01-27T03:38:35.285Z,3.10
2023-01-27T03:41:26.872Z,3.11
2023-01-27T03:44:18.312Z,3.12
2023-01-27T03:46:53.158Z,3.08
2023-01-27T03:49:27.188Z,3.06
2023-01-27T03:52:01.060Z,3.07
2023-01-27T03:54:35.010Z,3.06
2023-01-27T03:57:08.863Z,3.04
2023-01-27T03:59:42.439Z,3.03
2023-01-27T04:02:33.604Z,3.04
2023-01-27T04:05:26.472Z,3.06
2023-01-27T04:08:00.672Z,3.07
2023-01-27T04:10:34.076Z,3.11
2023-01-27T04:13:08.166Z,3.15
2023-01-27T04:15:42.164Z,3.17
2023-01-27T04:18:16.457Z,3.18
2023-01-27T04:20:50.458Z,3.21
2023-01-27T04:23:24.200Z,3.23
2023-01-27T04:26:00.726Z,3.26
2023-01-27T04:28:43.871Z,3.27
2023-01-27T04:31:19.979Z,3.26
2023-01-27T04:33:53.878Z,3.26
2023-01-27T04:36:27.912Z,3.27
2023-01-27T04:39:01.617Z,3.27
2023-01-27T04:41:35.774Z,3.27
2023-01-27T04:44:10.595Z,3.29
2023-01-27T04:46:44.237Z,3.30
2023-01-27T04:49:18.473Z,3.32
2023-01-27T04:51:52.370Z,3.33
2023-01-27T04:54:26.151Z,3.35
2023-01-27T04:57:03.772Z,3.36
2023-01-27T04:59:37.681Z,3.37
2023-01-27T05:02:11.830Z,3.37
2023-01-27T05:04:45.604Z,3.35
2023-01-27T05:07:19.345Z,3.32
2023-01-27T05:09:52.889Z,3.30
2023-01-27T05:12:27.108Z,3.29
2023-01-27T05:15:01.232Z,3.29
2023-01-27T05:17:36.668Z,3.29
2023-01-27T05:20:12.275Z,3.28
2023-01-27T05:22:45.857Z,3.26
2023-01-27T05:25:19.863Z,3.27
2023-01-27T05:27:55.409Z,3.29
2023-01-27T05:30:29.161Z,3.33
2023-01-27T05:33:02.814Z,3.35
2023-01-27T05:35:37.893Z,3.36
2023-01-27T05:38:11.962Z,3.37
2023-01-27T05:40:45.838Z,3.36
2023-01-27T05:43:19.414Z,3.35
2023-01-27T05:45:53.295Z,3.29
2023-01-27T05:48:27.046Z,3.24
2023-01-27T05:51:01.180Z,3.19
2023-01-27T05:53:34.807Z,3.13
2023-01-27T05:56:10.914Z,3.08
2023-01-27T05:58:44.824Z,3.03
2023-01-27T06:01:20.428Z,2.97
2023-01-27T06:03:54.691Z,2.94
2023-01-27T06:06:31.253Z,2.93
2023-01-27T06:09:05.403Z,2.94
2023-01-27T06:11:39.360Z,2.96
2023-01-27T06:14:13.470Z,2.97
2023-01-27T06:16:47.773Z,3.00
2023-01-27T06:19:21.535Z,3.03
2023-01-27T06:21:55.275Z,3.04
2023-01-27T06:24:29.137Z,3.05
2023-01-27T06:27:05.465Z,3.06
2023-01-27T06:29:39.247Z,3.07
2023-01-27T06:32:12.767Z,3.07
2023-01-27T06:34:46.688Z,3.08
2023-01-27T06:37:20.334Z,3.09
2023-01-27T06:39:54.266Z,3.10
2023-01-27T06:42:29.437Z,3.09
2023-01-27T06:45:03.227Z,3.10
2023-01-27T06:47:36.525Z,3.10
2023-01-27T06:50:12.889Z,3.11
2023-01-27T06:52:46.616Z,3.18
2023-01-27T06:55:20.895Z,3.23
2023-01-27T06:57:54.741Z,3.29
2023-01-27T07:00:28.828Z,3.33
2023-01-27T07:03:03.417Z,3.39
2023-01-27T07:05:37.653Z,3.44
2023-01-27T07:08:11.782Z,3.48
2023-01-27T07:10:45.815Z,3.51
2023-01-27T07:13:20.417Z,3.54
2023-01-27T07:15:59.094Z,3.58
2023-01-27T07:18:32.905Z,3.62
2023-01-27T07:21:07.544Z,3.65
2023-01-27T07:23:41.414Z,3.70
2023-01-27T07:26:24.570Z,3.75
2023-01-27T07:28:59.396Z,3.85
2023-01-27T07:31:35.040Z,3.95
2023-01-27T07:34:09.072Z,4.09
2023-01-27T07:36:42.909Z,4.21
2023-01-27T07:39:16.889Z,4.33
2023-01-27T07:41:51.833Z,4.44
2023-01-27T07:44:26.743Z,4.50
2023-01-27T07:47:02.174Z,4.54
2023-01-27T07:49:36.095Z,4.59
2023-01-27T07:52:10.175Z,4.62
2023-01-27T07:54:44.302Z,4.65
2023-01-27T07:57:18.294Z,4.67
2023-01-27T07:59:56.149Z,4.71
2023-01-27T08:02:32.054Z,4.74
2023-01-27T08:05:07.540Z,4.77
2023-01-27T08:07:41.353Z,4.77
2023-01-27T08:10:16.481Z,4.79
2023-01-27T08:12:50.815Z,4.82
2023-01-27T08:15:24.695Z,4.87
2023-01-27T08:17:59.382Z,4.93
2023-01-27T08:20:33.612Z,5.01
2023-01-27T08:23:07.835Z,5.07
2023-01-27T08:25:41.790Z,5.10
2023-01-27T08:28:15.450Z,5.19
2023-01-27T08:30:52.518Z,5.32
2023-01-27T08:33:27.473Z,5.48
2023-01-27T08:36:06.974Z,5.63
2023-01-27T08:38:41.559Z,5.79
2023-01-27T08:41:17.524Z,5.92
2023-01-27T08:43:51.916Z,6.06
2023-01-27T08:46:25.591Z,6.19
2023-01-27T08:48:59.294Z,6.28
2023-01-27T08:51:33.556Z,6.35
2023-01-27T08:54:07.753Z,6.32
2023-01-27T08:56:41.769Z,6.29
2023-01-27T08:59:15.463Z,6.36
2023-01-27T09:01:49.308Z,6.39
2023-01-27T09:04:23.497Z,6.43
2023-01-27T09:06:57.827Z,6.46
2023-01-27T09:09:31.992Z,6.45
2023-01-27T09:12:05.617Z,6.42
2023-01-27T09:14:40.484Z,6.36
2023-01-27T09:17:17.707Z,6.36
2023-01-27T09:19:51.396Z,6.38
2023-01-27T09:22:25.012Z,6.43
2023-01-27T09:24:58.687Z,6.53
2023-01-27T09:27:39.097Z,6.65
2023-01-27T09:30:17.116Z,6.79
2023-01-27T09:32:51.374Z,6.98
2023-01-27T09:35:25.801Z,7.28
2023-01-27T09:38:01.252Z,7.65
2023-01-27T09:40:40.588Z,8.06
2023-01-27T09:44:05.733Z,8.43
2023-01-27T09:46:53.272Z,8.79
2023-01-27T09:49:54.283Z,9.18
2023-01-27T09:52:48.729Z,9.57
2023-01-27T09:55:32.681Z,9.91
2023-01-27T09:58:16.321Z,10.13
2023-01-27T10:01:07.061Z,10.24
2023-01-27T10:04:04.206Z,10.20
2023-01-27T10:06:48.362Z,10.01
2023-01-27T10:09:42.608Z,9.77
2023-01-27T10:12:30.260Z,9.59
2023-01-27T10:15:17.024Z,9.39
2023-01-27T10:18:02.807Z,9.19
2023-01-27T10:20:48.131Z,9.03
2023-01-27T10:23:33.381Z,8.89
2023-01-27T10:26:19.857Z,8.69
2023-01-27T10:28:59.619Z,8.47
2023-01-27T10:31:44.296Z,8.25
2023-01-27T10:34:29.672Z,8.05
2023-01-27T10:37:19.308Z,7.85
2023-01-27T10:40:02.592Z,7.69
2023-01-27T10:42:43.158Z,7.55
2023-01-27T10:45:36.407Z,7.41
2023-01-27T10:48:26.000Z,7.28
2023-01-27T10:51:05.280Z,7.17
2023-01-27T10:53:50.367Z,7.03
2023-01-27T10:56:34.008Z,6.90
2023-01-27T10:59:13.163Z,6.78
2023-01-27T11:01:53.201Z,6.65
2023-01-27T11:04:35.146Z,6.55
2023-01-27T11:07:09.475Z,6.46
2023-01-27T11:09:50.273Z,6.37
2023-01-27T11:12:31.203Z,6.32
2023-01-27T11:15:12.442Z,6.26
2023-01-27T11:17:50.683Z,6.19
2023-01-27T11:20:32.339Z,6.12
2023-01-27T11:23:15.686Z,6.07
2023-01-27T11:25:55.712Z,6.03
2023-01-27T11:28:40.078Z,5.99
2023-01-27T11:31:32.650Z,5.96
2023-01-27T11:34:13.705Z,5.91
2023-01-27T11:36:49.739Z,5.91
2023-01-27T11:39:24.620Z,5.91
2023-01-27T11:41:59.064Z,5.93
2023-01-27T11:44:36.525Z,5.94
2023-01-27T11:47:16.229Z,5.95
2023-01-27T11:49:53.838Z,5.94
2023-01-27T11:52:29.630Z,5.93
2023-01-27T11:55:07.260Z,5.92
2023-01-27T11:57:46.422Z,5.89
2023-01-27T12:00:27.174Z,5.87
2023-01-27T12:03:09.693Z,5.88
2023-01-27T12:05:49.029Z,5.90
2023-01-27T12:08:40.146Z,5.91
2023-01-27T12:11:25.742Z,5.92
2023-01-27T12:14:02.097Z,5.96
2023-01-27T12:16:50.997Z,6.02
2023-01-27T12:19:30.114Z,6.05
2023-01-27T12:22:10.960Z,6.07
2023-01-27T12:24:51.886Z,6.07
2023-01-27T12:27:42.205Z,6.09
2023-01-27T12:30:24.763Z,6.11
2023-01-27T12:32:59.867Z,6.18
2023-01-27T12:35:38.147Z,6.22
2023-01-27T12:38:20.626Z,6.25
2023-01-27T12:41:03.112Z,6.27
2023-01-27T12:43:55.107Z,6.29
2023-01-27T12:46:30.138Z,6.32
2023-01-27T12:49:11.629Z,6.36
2023-01-27T12:51:52.452Z,6.39
2023-01-27T12:54:28.675Z,6.37
2023-01-27T12:57:06.571Z,6.37
2023-01-27T12:59:50.568Z,6.40
2023-01-27T13:02:27.960Z,6.38
2023-01-27T13:05:05.294Z,6.32
2023-01-27T13:07:46.306Z,6.23
2023-01-27T13:10:24.852Z,6.14
2023-01-27T13:13:01.276Z,6.07
2023-01-27T13:15:35.492Z,6.00
2023-01-27T13:18:23.456Z,5.92
2023-01-27T13:21:11.982Z,5.85
2023-01-27T13:23:50.246Z,5.77
2023-01-27T13:26:29.020Z,5.76
2023-01-27T13:29:12.064Z,5.78
2023-01-27T13:31:51.295Z,5.84
2023-01-27T13:34:34.113Z,5.90
2023-01-27T13:37:14.521Z,5.93
2023-01-27T13:40:01.391Z,5.95
2023-01-27T13:42:42.139Z,5.91
2023-01-27T13:45:20.648Z,5.87
2023-01-27T13:47:58.939Z,5.84
2023-01-27T13:50:37.946Z,5.83
2023-01-27T13:53:16.198Z,5.83
2023-01-27T13:56:05.707Z,5.80
2023-01-27T13:58:52.324Z,5.74
2023-01-27T14:01:33.870Z,5.70
2023-01-27T14:04:40.424Z,5.64
2023-01-27T14:07:27.606Z,5.59
2023-01-27T14:10:17.390Z,5.54
2023-01-27T14:13:05.467Z,5.52
2023-01-27T14:15:46.000Z,5.50
2023-01-27T14:18:24.745Z,5.48
2023-01-27T14:21:15.286Z,5.43
2023-01-27T14:24:01.816Z,5.41
2023-01-27T14:26:52.647Z,5.41
2023-01-27T14:29:38.316Z,5.41
2023-01-27T14:32:24.119Z,5.39
2023-01-27T14:35:18.693Z,5.27
2023-01-27T14:38:07.226Z,5.19
2023-01-27T14:40:48.610Z,5.14
2023-01-27T14:43:36.929Z,5.10
2023-01-27T14:46:21.605Z,5.09
2023-01-27T14:49:05.449Z,5.07
2023-01-27T14:51:45.959Z,5.05
2023-01-27T14:54:36.294Z,5.06
2023-01-27T14:57:25.719Z,5.05
2023-01-27T15:00:18.905Z,5.03
2023-01-27T15:03:03.440Z,4.99
2023-01-27T15:05:45.975Z,4.91
2023-01-27T15:08:30.244Z,4.85
2023-01-27T15:11:24.383Z,4.79
2023-01-27T15:14:17.185Z,4.75
2023-01-27T15:17:04.845Z,4.70
2023-01-27T15:20:02.062Z,4.66
2023-01-27T15:23:06.760Z,4.62
2023-01-27T15:25:44.803Z,4.57
2023-01-27T15:28:24.860Z,4.56
2023-01-27T15:31:23.496Z,4.54
2023-01-27T15:34:16.413Z,4.54
2023-01-27T15:37:05.463Z,4.55
2023-01-27T15:40:05.492Z,4.50
2023-01-27T15:42:54.319Z,4.43
2023-01-27T15:45:30.562Z,4.41
2023-01-27T15:48:09.052Z,4.38
2023-01-27T15:50:49.023Z,4.38
2023-01-27T15:53:31.675Z,4.40
2023-01-27T15:56:06.142Z,4.39
2023-01-27T15:58:46.234Z,4.37
2023-01-27T16:01:31.580Z,4.38
2023-01-27T16:04:20.125Z,4.41
2023-01-27T16:07:02.682Z,4.41
2023-01-27T16:09:42.209Z,4.38
2023-01-27T16:12:42.667Z,4.35
2023-01-27T16:15:39.304Z,4.32
2023-01-27T16:18:43.698Z,4.32
2023-01-27T16:21:37.190Z,4.33
2023-01-27T16:24:20.892Z,4.34
2023-01-27T16:26:59.722Z,4.38
2023-01-27T16:29:40.467Z,4.40
2023-01-27T16:32:21.129Z,4.39
2023-01-27T16:34:59.265Z,4.36
2023-01-27T16:37:35.133Z,4.31
2023-01-27T16:40:17.645Z,4.24
2023-01-27T16:42:59.056Z,4.19
2023-01-27T16:45:45.257Z,4.20
2023-01-27T16:48:29.709Z,4.19
2023-01-27T16:51:17.043Z,4.17
2023-01-27T16:53:53.506Z,4.21
2023-01-27T16:56:31.537Z,4.23
2023-01-27T16:59:06.195Z,4.24
2023-01-27T17:01:47.385Z,4.23
2023-01-27T17:04:26.340Z,4.23
2023-01-27T17:07:09.901Z,4.23
2023-01-27T17:09:53.706Z,4.21
2023-01-27T17:12:32.434Z,4.19
2023-01-27T17:15:23.744Z,4.18
2023-01-27T17:18:01.135Z,4.19
2023-01-27T17:20:40.826Z,4.23
2023-01-27T17:23:24.993Z,4.25
2023-01-27T17:26:04.878Z,4.26
2023-01-27T17:28:39.823Z,4.23
2023-01-27T17:31:23.876Z,4.22
2023-01-27T17:34:02.923Z,4.21
2023-01-27T17:36:36.967Z,4.18
2023-01-27T17:39:33.075Z,4.17
2023-01-27T17:42:09.306Z,4.18
2023-01-27T17:44:45.053Z,4.18
2023-01-27T17:47:22.271Z,4.19
2023-01-27T17:49:56.576Z,4.21
2023-01-27T17:52:32.170Z,4.22
2023-01-27T17:55:17.163Z,4.21
2023-01-27T17:57:56.219Z,4.19
2023-01-27T18:00:35.151Z,4.17
2023-01-27T18:03:16.401Z,4.13
2023-01-27T18:05:54.785Z,4.09
2023-01-27T18:08:29.253Z,4.09
2023-01-27T18:11:22.732Z,4.08
2023-01-27T18:13:58.733Z,4.08
2023-01-27T18:16:38.284Z,4.06
2023-01-27T18:19:25.853Z,4.08
2023-01-27T18:22:16.648Z,4.14
2023-01-27T18:25:00.684Z,4.12
2023-01-27T18:27:38.749Z,4.07
2023-01-27T18:30:20.145Z,4.02
2023-01-27T18:33:02.269Z,3.98
2023-01-27T18:35:40.054Z,4.00
2023-01-27T18:38:29.007Z,4.05
2023-01-27T18:41:25.357Z,4.13
2023-01-27T18:44:03.592Z,4.17
2023-01-27T18:46:41.965Z,4.18
2023-01-27T18:49:17.277Z,4.18
2023-01-27T18:51:56.425Z,4.17
2023-01-27T18:54:32.662Z,4.15
2023-01-27T18:57:08.065Z,4.15
2023-01-27T18:59:45.510Z,4.12
2023-01-27T19:02:22.191Z,4.10
2023-01-27T19:05:02.044Z,4.11
2023-01-27T19:07:40.483Z,4.11
2023-01-27T19:10:21.127Z,4.12
2023-01-27T19:13:03.117Z,4.15
2023-01-27T19:15:49.204Z,4.18
2023-01-27T19:18:28.757Z,4.19
2023-01-27T19:21:10.420Z,4.21
2023-01-27T19:23:50.075Z,4.22
2023-01-27T19:26:26.316Z,4.20
2023-01-27T19:29:02.425Z,4.19
2023-01-27T19:31:38.333Z,4.18
2023-01-27T19:34:15.989Z,4.19
2023-01-27T19:36:51.016Z,4.23
2023-01-27T19:39:27.295Z,4.25
2023-01-27T19:42:03.555Z,4.27
2023-01-27T19:44:40.640Z,4.27
2023-01-27T19:47:18.955Z,4.29
2023-01-27T19:49:55.043Z,4.27
2023-01-27T19:52:31.791Z,4.27
2023-01-27T19:55:07.469Z,4.27
2023-01-27T19:57:50.373Z,4.27
2023-01-27T20:00:30.968Z,4.25
2023-01-27T20:03:09.995Z,4.23
2023-01-27T20:05:46.877Z,4.22
2023-01-27T20:08:24.477Z,4.25
2023-01-27T20:11:01.577Z,4.29
2023-01-27T20:13:38.231Z,4.31
2023-01-27T20:16:17.314Z,4.32
2023-01-27T20:18:58.880Z,4.33
2023-01-27T20:21:38.552Z,4.28
2023-01-27T20:24:20.385Z,4.24
2023-01-27T20:26:58.518Z,4.22
2023-01-27T20:29:37.478Z,4.19
2023-01-27T20:32:15.081Z,4.16
2023-01-27T20:34:51.407Z,4.14
2023-01-27T20:37:30.999Z,4.14
2023-01-27T20:40:11.279Z,4.16
2023-01-27T20:42:49.670Z,4.17
2023-01-27T20:45:29.163Z,4.16
2023-01-27T20:48:09.318Z,4.16
2023-01-27T20:50:46.736Z,4.12
2023-01-27T20:53:32.822Z,4.10
2023-01-27T20:56:09.308Z,4.08
2023-01-27T20:58:46.260Z,4.05
2023-01-27T21:01:26.979Z,4.04
2023-01-27T21:04:02.237Z,4.05
2023-01-27T21:06:40.090Z,4.05
2023-01-27T21:09:15.798Z,4.05
2023-01-27T21:11:54.030Z,4.04
2023-01-27T21:14:29.451Z,4.00
2023-01-27T21:17:07.758Z,3.93
2023-01-27T21:19:41.623Z,3.91
2023-01-27T21:22:17.519Z,3.93
2023-01-27T21:24:53.901Z,3.93
2023-01-27T21:27:30.803Z,3.94
2023-01-27T21:30:05.937Z,3.94
2023-01-27T21:32:42.411Z,3.93
2023-01-27T21:35:18.726Z,3.95
2023-01-27T21:37:55.396Z,3.93
2023-01-27T21:40:35.224Z,3.94
2023-01-27T21:43:28.984Z,3.97
2023-01-27T21:46:03.807Z,4.01
2023-01-27T21:48:38.201Z,4.01
2023-01-27T21:51:13.683Z,4.01
2023-01-27T21:53:48.275Z,4.00
2023-01-27T21:56:24.267Z,4.01
2023-01-27T21:58:59.893Z,4.01
2023-01-27T22:01:34.881Z,3.99
2023-01-27T22:04:09.411Z,3.95
2023-01-27T22:06:43.303Z,3.94
2023-01-27T22:09:17.827Z,3.98
2023-01-27T22:11:51.307Z,3.96
2023-01-27T22:14:25.752Z,3.94
2023-01-27T22:16:59.681Z,3.90
2023-01-27T22:19:33.398Z,3.87
2023-01-27T22:22:08.109Z,3.84
2023-01-27T22:24:42.170Z,3.80
2023-01-27T22:27:16.152Z,3.76
2023-01-27T22:29:50.654Z,3.73
2023-01-27T22:32:24.543Z,3.72
2023-01-27T22:34:58.560Z,3.69
2023-01-27T22:37:32.635Z,3.68
2023-01-27T22:40:08.078Z,3.68
2023-01-27T22:42:41.888Z,3.67
2023-01-27T22:45:16.188Z,3.69
2023-01-27T22:47:50.822Z,3.69
2023-01-27T22:50:24.755Z,3.66
2023-01-27T22:52:58.636Z,3.66
2023-01-27T22:55:32.524Z,3.69
2023-01-27T22:58:06.272Z,3.72
2023-01-27T23:00:40.208Z,3.74
2023-01-27T23:03:14.360Z,3.77
2023-01-27T23:05:48.233Z,3.77
2023-01-27T23:08:22.130Z,3.73
2023-01-27T23:11:01.352Z,3.69
2023-01-27T23:13:36.516Z,3.64
2023-01-27T23:16:11.108Z,3.62
2023-01-27T23:18:44.671Z,3.61
2023-01-27T23:21:18.727Z,3.63
2023-01-27T23:23:53.526Z,3.66
2023-01-27T23:26:27.652Z,3.68
2023-01-27T23:29:01.671Z,3.70
2023-01-27T23:31:35.553Z,3.73
2023-01-27T23:34:09.126Z,3.77
2023-01-27T23:36:43.258Z,3.78
2023-01-27T23:39:18.607Z,3.77
2023-01-27T23:41:52.503Z,3.75
2023-01-27T23:44:26.368Z,3.74
2023-01-27T23:46:59.963Z,3.75
2023-01-27T23:49:33.901Z,3.75
2023-01-27T23:52:08.059Z,3.74
2023-01-27T23:54:42.007Z,3.73
2023-01-27T23:57:15.544Z,3.70
2023-01-27T23:59:49.539Z,3.66
